createdAt,value
2017-06-23T00:00:56.460Z,20.13
2017-06-23T00:01:56.496Z,20.18
2017-06-23T00:02:56.437Z,20.16
2017-06-23T00:03:56.437Z,20.13
2017-06-23T00:04:56.420Z,20.13
2017-06-23T00:05:56.412Z,20.15
2017-06-23T00:06:56.406Z,20.12
2017-06-23T00:07:56.727Z,20.2
2017-06-23T00:08:56.388Z,20.15
2017-06-23T00:09:56.373Z,20.18
2017-06-23T00:10:56.364Z,20.24
2017-06-23T00:11:56.673Z,20.24
2017-06-23T00:12:56.664Z,20.25
2017-06-23T00:13:56.694Z,20.23
2017-06-23T00:14:56.340Z,20.25
2017-06-23T00:15:56.322Z,20.21
2017-06-23T00:16:56.316Z,20.21
2017-06-23T00:17:55.989Z,20.24
2017-06-23T00:18:56.301Z,20.24
2017-06-23T00:19:56.292Z,20.23
2017-06-23T00:20:55.966Z,20.2
2017-06-23T00:21:56.588Z,20.23
2017-06-23T00:22:56.260Z,20.23
2017-06-23T00:23:56.566Z,20.18
2017-06-23T00:24:56.243Z,20.2
2017-06-23T00:25:56.549Z,20.08
2017-06-23T00:26:55.919Z,20.13
2017-06-23T00:27:56.531Z,20.13
2017-06-23T00:28:56.554Z,20.24
2017-06-23T00:29:56.202Z,20.15
2017-06-23T00:30:55.882Z,20.12
2017-06-23T00:31:55.866Z,20.13
2017-06-23T00:32:55.863Z,20.09
2017-06-23T00:33:56.163Z,20.1
2017-06-23T00:34:56.157Z,20.13
2017-06-23T00:35:55.836Z,20.16
2017-06-23T00:36:55.829Z,20.15
2017-06-23T00:37:56.447Z,20.13
2017-06-23T00:38:56.439Z,20.12
2017-06-23T00:39:56.442Z,20.18
2017-06-23T00:40:55.790Z,20.15
2017-06-23T00:41:55.783Z,20.1
2017-06-23T00:42:56.083Z,20.13
2017-06-23T00:43:56.393Z,20.16
2017-06-23T00:44:56.068Z,20.08
2017-06-23T00:45:56.064Z,20.15
2017-06-23T00:46:56.059Z,20.16
2017-06-23T00:47:56.358Z,20.15
2017-06-23T00:48:56.041Z,20.18
2017-06-23T00:49:56.030Z,20.1
2017-06-23T00:50:56.023Z,20.12
2017-06-23T00:51:56.006Z,20.1
2017-06-23T00:52:55.688Z,20.16
2017-06-23T00:53:56.301Z,20.09
2017-06-23T00:54:55.980Z,20.09
2017-06-23T00:55:56.285Z,20.09
2017-06-23T00:56:56.282Z,20.09
2017-06-23T00:57:56.266Z,20.08
2017-06-23T00:58:56.257Z,20.08
2017-06-23T00:59:56.255Z,20.08
2017-06-23T01:00:56.242Z,20.02
2017-06-23T01:01:55.608Z,20.03
2017-06-23T01:02:55.962Z,20.1
2017-06-23T01:03:56.219Z,20.1
2017-06-23T01:04:55.894Z,20.1
2017-06-23T01:05:56.197Z,20.15
2017-06-23T01:06:56.193Z,20.09
2017-06-23T01:07:56.182Z,20.08
2017-06-23T01:08:55.859Z,20.1
2017-06-23T01:09:55.849Z,20.05
2017-06-23T01:10:55.844Z,20.06
2017-06-23T01:11:55.518Z,20.05
2017-06-23T01:12:56.192Z,20.1
2017-06-23T01:13:56.127Z,20.05
2017-06-23T01:14:55.806Z,20.06
2017-06-23T01:15:56.113Z,20.06
2017-06-23T01:16:56.100Z,19.98
2017-06-23T01:17:55.781Z,20
2017-06-23T01:18:55.775Z,20
2017-06-23T01:19:55.761Z,19.97
2017-06-23T01:20:56.068Z,19.93
2017-06-23T01:21:56.062Z,20.02
2017-06-23T01:22:56.050Z,20
2017-06-23T01:23:55.733Z,19.97
2017-06-23T01:24:55.725Z,20.02
2017-06-23T01:25:55.715Z,20.02
2017-06-23T01:26:55.707Z,19.94
2017-06-23T01:27:56.006Z,19.95
2017-06-23T01:28:55.994Z,19.95
2017-06-23T01:29:55.688Z,19.94
2017-06-23T01:30:55.981Z,20
2017-06-23T01:31:55.657Z,19.94
2017-06-23T01:32:55.650Z,20
2017-06-23T01:33:55.639Z,19.94
2017-06-23T01:34:56.151Z,19.93
2017-06-23T01:35:55.310Z,20
2017-06-23T01:36:55.616Z,19.97
2017-06-23T01:37:55.918Z,20
2017-06-23T01:38:55.595Z,20.02
2017-06-23T01:39:55.901Z,19.97
2017-06-23T01:40:55.585Z,19.98
2017-06-23T01:41:55.567Z,19.95
2017-06-23T01:42:55.875Z,19.97
2017-06-23T01:43:55.865Z,19.97
2017-06-23T01:44:55.857Z,19.98
2017-06-23T01:45:55.846Z,20.06
2017-06-23T01:46:55.839Z,19.95
2017-06-23T01:47:55.514Z,19.95
2017-06-23T01:48:55.508Z,19.98
2017-06-23T01:49:55.815Z,19.97
2017-06-23T01:50:55.493Z,19.93
2017-06-23T01:51:55.483Z,19.95
2017-06-23T01:52:55.785Z,19.97
2017-06-23T01:53:55.468Z,19.97
2017-06-23T01:54:55.151Z,20.08
2017-06-23T01:55:55.762Z,20.09
2017-06-23T01:56:55.124Z,19.91
2017-06-23T01:57:55.116Z,19.98
2017-06-23T01:58:55.107Z,19.94
2017-06-23T01:59:55.753Z,19.97
2017-06-23T02:00:55.714Z,19.94
2017-06-23T02:01:55.080Z,19.95
2017-06-23T02:02:55.384Z,19.94
2017-06-23T02:03:55.688Z,19.91
2017-06-23T02:04:55.370Z,19.9
2017-06-23T02:05:55.672Z,19.91
2017-06-23T02:06:55.659Z,19.95
2017-06-23T02:07:55.027Z,19.97
2017-06-23T02:08:55.015Z,19.97
2017-06-23T02:09:55.663Z,19.94
2017-06-23T02:10:55.318Z,20.02
2017-06-23T02:11:54.996Z,20
2017-06-23T02:12:55.295Z,19.95
2017-06-23T02:13:55.288Z,19.94
2017-06-23T02:14:55.276Z,19.98
2017-06-23T02:15:55.586Z,19.98
2017-06-23T02:16:54.970Z,20.02
2017-06-23T02:17:55.253Z,19.9
2017-06-23T02:18:55.241Z,19.94
2017-06-23T02:19:54.939Z,19.98
2017-06-23T02:20:55.539Z,20.02
2017-06-23T02:21:55.529Z,19.9
2017-06-23T02:22:55.518Z,19.9
2017-06-23T02:23:55.198Z,19.9
2017-06-23T02:24:55.189Z,19.93
2017-06-23T02:25:55.493Z,19.84
2017-06-23T02:26:55.171Z,19.86
2017-06-23T02:27:55.476Z,19.78
2017-06-23T02:28:54.843Z,19.75
2017-06-23T02:29:55.461Z,19.88
2017-06-23T02:30:55.446Z,19.75
2017-06-23T02:31:54.815Z,19.78
2017-06-23T02:32:55.428Z,19.75
2017-06-23T02:33:55.431Z,19.75
2017-06-23T02:34:55.413Z,19.78
2017-06-23T02:35:55.095Z,19.84
2017-06-23T02:36:55.082Z,19.76
2017-06-23T02:37:55.388Z,19.87
2017-06-23T02:38:55.067Z,19.72
2017-06-23T02:39:55.371Z,19.75
2017-06-23T02:40:54.732Z,19.78
2017-06-23T02:41:55.359Z,19.73
2017-06-23T02:42:55.347Z,19.73
2017-06-23T02:43:55.017Z,19.8
2017-06-23T02:44:55.326Z,19.8
2017-06-23T02:45:55.002Z,19.8
2017-06-23T02:46:55.306Z,19.84
2017-06-23T02:47:55.301Z,19.8
2017-06-23T02:48:55.286Z,19.78
2017-06-23T02:49:55.283Z,19.75
2017-06-23T02:50:55.268Z,19.7
2017-06-23T02:51:54.981Z,19.65
2017-06-23T02:52:54.938Z,19.7
2017-06-23T02:53:55.241Z,19.73
2017-06-23T02:54:54.918Z,19.72
2017-06-23T02:55:54.917Z,19.72
2017-06-23T02:56:55.217Z,19.65
2017-06-23T02:57:54.930Z,19.7
2017-06-23T02:58:55.198Z,19.69
2017-06-23T02:59:54.562Z,19.68
2017-06-23T03:00:54.871Z,19.68
2017-06-23T03:01:54.863Z,19.72
2017-06-23T03:02:54.539Z,19.69
2017-06-23T03:03:54.530Z,19.69
2017-06-23T03:04:54.835Z,19.72
2017-06-23T03:05:55.135Z,19.79
2017-06-23T03:06:55.127Z,19.76
2017-06-23T03:07:55.119Z,19.72
2017-06-23T03:08:55.109Z,19.75
2017-06-23T03:09:54.786Z,19.72
2017-06-23T03:10:55.114Z,19.72
2017-06-23T03:11:55.082Z,19.66
2017-06-23T03:12:54.459Z,19.63
2017-06-23T03:13:54.752Z,19.65
2017-06-23T03:14:55.057Z,19.69
2017-06-23T03:15:55.048Z,19.68
2017-06-23T03:16:54.726Z,19.7
2017-06-23T03:17:54.716Z,19.66
2017-06-23T03:18:54.395Z,19.61
2017-06-23T03:19:54.697Z,19.76
2017-06-23T03:20:55.003Z,19.63
2017-06-23T03:21:54.993Z,19.68
2017-06-23T03:22:54.987Z,19.61
2017-06-23T03:23:54.662Z,19.69
2017-06-23T03:24:54.652Z,19.73
2017-06-23T03:25:54.642Z,19.73
2017-06-23T03:26:54.637Z,19.66
2017-06-23T03:27:54.312Z,19.6
2017-06-23T03:28:54.931Z,19.58
2017-06-23T03:29:54.926Z,19.58
2017-06-23T03:30:54.911Z,19.61
2017-06-23T03:31:54.593Z,19.51
2017-06-23T03:32:54.895Z,19.54
2017-06-23T03:33:54.573Z,19.5
2017-06-23T03:34:54.838Z,19.51
2017-06-23T03:35:54.555Z,19.51
2017-06-23T03:36:54.861Z,19.51
2017-06-23T03:37:54.850Z,19.6
2017-06-23T03:38:54.526Z,19.54
2017-06-23T03:39:54.519Z,19.63
2017-06-23T03:40:54.207Z,19.51
2017-06-23T03:41:54.835Z,19.5
2017-06-23T03:42:54.490Z,19.55
2017-06-23T03:43:54.803Z,19.66
2017-06-23T03:44:54.794Z,19.47
2017-06-23T03:45:54.466Z,19.51
2017-06-23T03:46:54.455Z,19.58
2017-06-23T03:47:54.464Z,19.57
2017-06-23T03:48:54.748Z,19.57
2017-06-23T03:49:54.427Z,19.6
2017-06-23T03:50:54.733Z,19.54
2017-06-23T03:51:54.408Z,19.53
2017-06-23T03:52:54.401Z,19.72
2017-06-23T03:53:54.400Z,19.55
2017-06-23T03:54:54.416Z,19.53
2017-06-23T03:55:54.690Z,19.63
2017-06-23T03:56:54.373Z,19.65
2017-06-23T03:57:54.666Z,19.61
2017-06-23T03:58:54.350Z,19.6
2017-06-23T03:59:54.655Z,19.57
2017-06-23T04:00:54.330Z,19.69
2017-06-23T04:01:54.632Z,19.69
2017-06-23T04:02:54.313Z,19.69
2017-06-23T04:03:54.299Z,19.73
2017-06-23T04:04:54.292Z,19.66
2017-06-23T04:05:54.293Z,19.68
2017-06-23T04:06:54.585Z,19.63
2017-06-23T04:07:54.268Z,19.7
2017-06-23T04:08:54.260Z,19.7
2017-06-23T04:09:54.559Z,19.73
2017-06-23T04:10:54.239Z,19.6
2017-06-23T04:11:54.541Z,19.66
2017-06-23T04:12:54.229Z,19.61
2017-06-23T04:13:54.214Z,19.63
2017-06-23T04:14:54.516Z,19.66
2017-06-23T04:15:54.194Z,19.63
2017-06-23T04:16:54.510Z,19.63
2017-06-23T04:17:54.175Z,19.65
2017-06-23T04:18:53.850Z,19.58
2017-06-23T04:19:54.157Z,19.61
2017-06-23T04:20:54.465Z,19.57
2017-06-23T04:21:53.827Z,19.63
2017-06-23T04:22:54.443Z,19.65
2017-06-23T04:23:54.126Z,19.72
2017-06-23T04:24:54.476Z,19.58
2017-06-23T04:25:54.105Z,19.58
2017-06-23T04:26:53.780Z,19.69
2017-06-23T04:27:54.394Z,19.66
2017-06-23T04:28:54.389Z,19.6
2017-06-23T04:29:53.756Z,19.6
2017-06-23T04:30:53.748Z,19.6
2017-06-23T04:31:54.052Z,19.47
2017-06-23T04:32:54.042Z,19.55
2017-06-23T04:33:54.347Z,19.54
2017-06-23T04:34:54.336Z,19.4
2017-06-23T04:35:53.704Z,19.51
2017-06-23T04:36:54.320Z,19.53
2017-06-23T04:37:54.002Z,19.5
2017-06-23T04:38:54.304Z,19.48
2017-06-23T04:39:54.296Z,19.39
2017-06-23T04:40:54.284Z,19.51
2017-06-23T04:41:53.961Z,19.4
2017-06-23T04:42:53.950Z,19.53
2017-06-23T04:43:53.953Z,19.48
2017-06-23T04:44:54.249Z,19.51
2017-06-23T04:45:53.929Z,19.55
2017-06-23T04:46:53.919Z,19.57
2017-06-23T04:47:54.217Z,19.53
2017-06-23T04:48:53.901Z,19.54
2017-06-23T04:49:53.576Z,19.57
2017-06-23T04:50:54.192Z,19.65
2017-06-23T04:51:53.871Z,19.63
2017-06-23T04:52:53.861Z,19.68
2017-06-23T04:53:53.552Z,19.58
2017-06-23T04:54:54.165Z,19.68
2017-06-23T04:55:53.835Z,19.65
2017-06-23T04:56:54.137Z,19.7
2017-06-23T04:57:54.130Z,19.66
2017-06-23T04:58:53.811Z,19.68
2017-06-23T04:59:53.486Z,19.63
2017-06-23T05:00:54.106Z,19.61
2017-06-23T05:01:53.473Z,19.69
2017-06-23T05:02:54.087Z,19.65
2017-06-23T05:03:53.768Z,19.63
2017-06-23T05:04:53.760Z,19.58
2017-06-23T05:06:23.323Z,19.6
2017-06-23T05:06:54.053Z,19.58
2017-06-23T05:07:53.757Z,19.68
2017-06-23T05:08:54.039Z,19.73
2017-06-23T05:09:53.712Z,19.7
2017-06-23T05:10:54.016Z,19.79
2017-06-23T05:11:54.043Z,19.8
2017-06-23T05:12:54.001Z,19.78
2017-06-23T05:13:53.678Z,19.83
2017-06-23T05:14:53.671Z,19.84
2017-06-23T05:15:53.971Z,19.87
2017-06-23T05:16:53.984Z,19.84
2017-06-23T05:17:53.692Z,19.9
2017-06-23T05:18:53.635Z,19.98
2017-06-23T05:19:53.636Z,19.95
2017-06-23T05:20:53.932Z,19.95
2017-06-23T05:21:53.924Z,19.95
2017-06-23T05:22:53.607Z,20
2017-06-23T05:23:53.911Z,20.08
2017-06-23T05:24:53.274Z,20.12
2017-06-23T05:25:53.893Z,20.13
2017-06-23T05:26:53.909Z,20.13
2017-06-23T05:27:53.252Z,20.18
2017-06-23T05:28:53.859Z,20.18
2017-06-23T05:29:53.868Z,20.13
2017-06-23T05:30:53.217Z,20.24
2017-06-23T05:31:53.838Z,20.23
2017-06-23T05:32:53.829Z,20.27
2017-06-23T05:33:53.821Z,20.25
2017-06-23T05:34:53.741Z,20.27
2017-06-23T05:35:53.804Z,20.18
2017-06-23T05:36:53.484Z,20.23
2017-06-23T05:37:53.472Z,20.21
2017-06-23T05:38:53.466Z,20.23
2017-06-23T05:39:53.772Z,20.21
2017-06-23T05:40:53.764Z,20.24
2017-06-23T05:41:53.467Z,20.27
2017-06-23T05:42:53.120Z,20.13
2017-06-23T05:43:53.749Z,20.13
2017-06-23T05:44:53.728Z,20.21
2017-06-23T05:45:53.739Z,20.23
2017-06-23T05:46:53.405Z,20.23
2017-06-23T05:47:53.390Z,20.2
2017-06-23T05:48:53.704Z,20.25
2017-06-23T05:49:53.693Z,20.3
2017-06-23T05:50:53.683Z,20.24
2017-06-23T05:51:53.671Z,20.25
2017-06-23T05:52:53.666Z,20.3
2017-06-23T05:53:53.341Z,20.35
2017-06-23T05:54:53.333Z,20.39
2017-06-23T05:55:53.639Z,20.43
2017-06-23T05:56:53.007Z,20.42
2017-06-23T05:57:53.624Z,20.46
2017-06-23T05:58:53.616Z,20.47
2017-06-23T05:59:53.608Z,20.46
2017-06-23T06:00:53.291Z,20.43
2017-06-23T06:01:53.281Z,20.42
2017-06-23T06:02:53.589Z,20.49
2017-06-23T06:03:53.576Z,20.54
2017-06-23T06:04:53.571Z,20.53
2017-06-23T06:05:53.253Z,20.61
2017-06-23T06:06:53.241Z,20.58
2017-06-23T06:07:52.924Z,20.53
2017-06-23T06:08:53.223Z,20.54
2017-06-23T06:09:53.529Z,20.5
2017-06-23T06:10:53.530Z,20.54
2017-06-23T06:11:53.202Z,20.71
2017-06-23T06:12:52.882Z,20.58
2017-06-23T06:13:52.872Z,20.69
2017-06-23T06:14:53.178Z,20.66
2017-06-23T06:15:53.172Z,20.84
2017-06-23T06:16:53.165Z,20.98
2017-06-23T06:17:53.162Z,20.99
2017-06-23T06:18:53.147Z,21.08
2017-06-23T06:19:53.137Z,20.99
2017-06-23T06:20:53.137Z,20.99
2017-06-23T06:21:53.435Z,21.02
2017-06-23T06:22:53.432Z,21.06
2017-06-23T06:23:53.428Z,21.08
2017-06-23T06:24:53.414Z,20.96
2017-06-23T06:25:53.096Z,20.9
2017-06-23T06:26:53.506Z,20.83
2017-06-23T06:27:53.391Z,20.9
2017-06-23T06:28:53.391Z,20.81
2017-06-23T06:29:53.067Z,20.95
2017-06-23T06:30:53.065Z,20.99
2017-06-23T06:31:52.738Z,20.98
2017-06-23T06:32:53.051Z,21.13
2017-06-23T06:33:53.037Z,21.11
2017-06-23T06:34:53.350Z,21.11
2017-06-23T06:35:53.024Z,21.09
2017-06-23T06:36:53.017Z,21.23
2017-06-23T06:37:52.696Z,21.26
2017-06-23T06:38:53.001Z,21.2
2017-06-23T06:39:52.997Z,21.19
2017-06-23T06:40:53.299Z,21.26
2017-06-23T06:41:53.290Z,21.19
2017-06-23T06:42:53.286Z,21.17
2017-06-23T06:43:52.970Z,21.19
2017-06-23T06:44:52.960Z,21.11
2017-06-23T06:45:53.269Z,21.06
2017-06-23T06:46:52.949Z,21.21
2017-06-23T06:47:52.936Z,21.23
2017-06-23T06:48:53.266Z,21.54
2017-06-23T06:49:53.236Z,21.56
2017-06-23T06:50:52.920Z,21.53
2017-06-23T06:51:53.219Z,21.35
2017-06-23T06:52:52.904Z,21.53
2017-06-23T06:53:53.206Z,21.48
2017-06-23T06:54:52.889Z,21.6
2017-06-23T06:55:53.190Z,21.94
2017-06-23T06:56:52.876Z,22.06
2017-06-23T06:57:53.177Z,22.07
2017-06-23T06:58:52.861Z,22.01
2017-06-23T06:59:53.171Z,22.23
2017-06-23T07:00:52.848Z,22.09
2017-06-23T07:01:53.155Z,22.12
2017-06-23T07:02:53.150Z,21.97
2017-06-23T07:03:53.147Z,22.04
2017-06-23T07:04:53.137Z,21.98
2017-06-23T07:05:53.127Z,22.01
2017-06-23T07:06:52.499Z,22.01
2017-06-23T07:07:52.803Z,21.92
2017-06-23T07:08:53.110Z,21.95
2017-06-23T07:09:53.102Z,21.88
2017-06-23T07:10:53.094Z,21.75
2017-06-23T07:11:53.088Z,21.71
2017-06-23T07:12:53.084Z,21.72
2017-06-23T07:13:52.761Z,21.75
2017-06-23T07:14:53.067Z,21.78
2017-06-23T07:15:53.062Z,21.76
2017-06-23T07:16:52.742Z,21.72
2017-06-23T07:17:53.071Z,21.71
2017-06-23T07:18:53.042Z,22.04
2017-06-23T07:19:53.037Z,22.12
2017-06-23T07:20:52.717Z,22.37
2017-06-23T07:21:53.027Z,22.54
2017-06-23T07:22:53.049Z,22.68
2017-06-23T07:23:52.381Z,22.71
2017-06-23T07:24:52.379Z,22.71
2017-06-23T07:25:52.688Z,22.57
2017-06-23T07:26:52.678Z,22.62
2017-06-23T07:27:52.987Z,22.52
2017-06-23T07:28:52.663Z,22.37
2017-06-23T07:29:52.657Z,22.34
2017-06-23T07:30:52.973Z,22.1
2017-06-23T07:31:52.956Z,22.25
2017-06-23T07:32:52.637Z,22.29
2017-06-23T07:33:52.322Z,22.34
2017-06-23T07:34:53.346Z,22.28
2017-06-23T07:35:52.626Z,22.27
2017-06-23T07:36:52.618Z,22.32
2017-06-23T07:37:52.634Z,22.29
2017-06-23T07:38:52.601Z,22.5
2017-06-23T07:39:52.598Z,22.52
2017-06-23T07:40:52.592Z,22.49
2017-06-23T07:41:52.899Z,22.41
2017-06-23T07:42:52.580Z,22.37
2017-06-23T07:43:52.577Z,22.32
2017-06-23T07:44:52.888Z,22.34
2017-06-23T07:45:52.890Z,22.29
2017-06-23T07:46:52.552Z,22.31
2017-06-23T07:47:52.861Z,22.32
2017-06-23T07:48:52.855Z,22.72
2017-06-23T07:49:52.534Z,22.94
2017-06-23T07:50:52.563Z,23.32
2017-06-23T07:51:52.531Z,23.53
2017-06-23T07:52:52.522Z,23.77
2017-06-23T07:53:52.857Z,23.58
2017-06-23T07:54:52.817Z,23.39
2017-06-23T07:55:52.190Z,23.39
2017-06-23T07:56:52.192Z,23.12
2017-06-23T07:57:52.541Z,22.92
2017-06-23T07:58:52.800Z,23.02
2017-06-23T07:59:52.480Z,23.14
2017-06-23T08:00:52.475Z,22.96
2017-06-23T08:01:52.800Z,22.82
2017-06-23T08:02:52.463Z,22.74
2017-06-23T08:03:52.769Z,22.89
2017-06-23T08:04:52.170Z,22.89
2017-06-23T08:05:52.760Z,22.83
2017-06-23T08:06:52.439Z,22.71
2017-06-23T08:07:52.438Z,22.82
2017-06-23T08:08:52.116Z,23.53
2017-06-23T08:09:52.432Z,23.77
2017-06-23T08:10:52.735Z,24.19
2017-06-23T08:11:52.729Z,23.94
2017-06-23T08:12:52.774Z,23.61
2017-06-23T08:13:52.716Z,23.57
2017-06-23T08:14:52.406Z,23.76
2017-06-23T08:15:52.397Z,24.32
2017-06-23T08:16:52.393Z,24.97
2017-06-23T08:17:52.386Z,25.71
2017-06-23T08:18:52.695Z,26.15
2017-06-23T08:19:52.690Z,26.36
2017-06-23T08:20:52.059Z,26.05
2017-06-23T08:21:52.680Z,26.31
2017-06-23T08:22:52.686Z,26.29
2017-06-23T08:23:52.681Z,26.52
2017-06-23T08:24:52.359Z,26.73
2017-06-23T08:25:52.044Z,27.06
2017-06-23T08:26:52.663Z,26.95
2017-06-23T08:27:52.032Z,26.31
2017-06-23T08:28:52.658Z,25.56
2017-06-23T08:29:52.655Z,24.98
2017-06-23T08:30:52.025Z,24.54
2017-06-23T08:31:52.341Z,24.22
2017-06-23T08:32:52.336Z,24.97
2017-06-23T08:33:52.640Z,25.46
2017-06-23T08:34:52.325Z,25.2
2017-06-23T08:35:52.324Z,24.97
2017-06-23T08:36:52.328Z,24.76
2017-06-23T08:37:52.638Z,25
2017-06-23T08:38:52.002Z,24.53
2017-06-23T08:39:52.629Z,24.29
2017-06-23T08:40:52.303Z,24.23
2017-06-23T08:41:52.620Z,23.83
2017-06-23T08:42:52.620Z,23.82
2017-06-23T08:43:52.296Z,24.31
2017-06-23T08:44:52.612Z,24.32
2017-06-23T08:45:52.290Z,24.05
2017-06-23T08:46:51.976Z,23.89
2017-06-23T08:47:52.598Z,23.82
2017-06-23T08:48:52.590Z,23.75
2017-06-23T08:49:52.588Z,23.55
2017-06-23T08:50:52.267Z,23.5
2017-06-23T08:51:52.578Z,23.55
2017-06-23T08:52:52.574Z,23.49
2017-06-23T08:53:52.568Z,23.45
2017-06-23T08:54:52.568Z,23.57
2017-06-23T08:55:52.566Z,23.64
2017-06-23T08:56:52.245Z,23.71
2017-06-23T08:57:52.239Z,23.94
2017-06-23T08:58:51.921Z,23.95
2017-06-23T08:59:52.231Z,23.94
2017-06-23T09:00:52.226Z,24.12
2017-06-23T09:01:52.539Z,24.32
2017-06-23T09:02:52.215Z,24.54
2017-06-23T09:03:52.212Z,24.41
2017-06-23T09:04:51.894Z,24.49
2017-06-23T09:05:52.514Z,24.5
2017-06-23T09:06:52.191Z,24.52
2017-06-23T09:07:52.194Z,24.49
2017-06-23T09:08:52.505Z,24.26
2017-06-23T09:09:52.188Z,24.14
2017-06-23T09:10:52.497Z,24.14
2017-06-23T09:11:52.185Z,24.32
2017-06-23T09:12:52.488Z,24.68
2017-06-23T09:13:52.480Z,24.95
2017-06-23T09:14:52.163Z,25.22
2017-06-23T09:15:52.475Z,25.02
2017-06-23T09:16:52.470Z,25.16
2017-06-23T09:17:52.465Z,25.43
2017-06-23T09:18:52.482Z,25.56
2017-06-23T09:19:51.828Z,25.38
2017-06-23T09:20:52.452Z,25.3
2017-06-23T09:21:52.449Z,25.3
2017-06-23T09:22:51.818Z,25.22
2017-06-23T09:23:52.132Z,25.2
2017-06-23T09:24:52.125Z,25.06
2017-06-23T09:25:52.436Z,25.25
2017-06-23T09:26:52.118Z,25.07
2017-06-23T09:27:52.111Z,24.97
2017-06-23T09:28:52.422Z,24.68
2017-06-23T09:29:52.104Z,24.54
2017-06-23T09:30:52.429Z,24.45
2017-06-23T09:31:51.788Z,24.45
2017-06-23T09:32:52.098Z,24.44
2017-06-23T09:33:52.094Z,24.54
2017-06-23T09:34:51.776Z,25.09
2017-06-23T09:35:52.087Z,25.32
2017-06-23T09:36:52.076Z,25.99
2017-06-23T09:37:51.767Z,26.37
2017-06-23T09:38:52.074Z,26.67
2017-06-23T09:39:52.386Z,26.92
2017-06-23T09:40:52.068Z,27.28
2017-06-23T09:41:52.070Z,27.57
2017-06-23T09:42:52.377Z,27.76
2017-06-23T09:43:52.378Z,27.88
2017-06-23T09:44:52.372Z,27.85
2017-06-23T09:45:52.057Z,27.89
2017-06-23T09:46:52.064Z,27.91
2017-06-23T09:47:52.057Z,28.07
2017-06-23T09:48:52.057Z,27.79
2017-06-23T09:49:52.060Z,27.57
2017-06-23T09:50:52.056Z,27.74
2017-06-23T09:51:52.059Z,27.57
2017-06-23T09:52:51.738Z,27.14
2017-06-23T09:53:52.367Z,26.89
2017-06-23T09:54:52.370Z,26.68
2017-06-23T09:55:52.363Z,26.94
2017-06-23T09:56:52.362Z,27.33
2017-06-23T09:57:52.366Z,27.85
2017-06-23T09:58:52.359Z,28.09
2017-06-23T09:59:52.055Z,28.03
2017-06-23T10:00:52.361Z,28.1
2017-06-23T10:01:52.049Z,28.13
2017-06-23T10:02:51.735Z,28.25
2017-06-23T10:03:52.052Z,27.84
2017-06-23T10:04:52.360Z,27.13
2017-06-23T10:05:52.047Z,26.72
2017-06-23T10:06:52.050Z,26.4
2017-06-23T10:07:52.050Z,26.09
2017-06-23T10:08:52.045Z,25.74
2017-06-23T10:09:52.043Z,25.37
2017-06-23T10:10:51.732Z,25.27
2017-06-23T10:11:52.359Z,25.07
2017-06-23T10:12:52.045Z,25.06
2017-06-23T10:13:52.355Z,25.01
2017-06-23T10:14:52.381Z,24.8
2017-06-23T10:15:52.037Z,25.39
2017-06-23T10:16:52.035Z,26.08
2017-06-23T10:17:52.030Z,26.54
2017-06-23T10:18:52.033Z,26.81
2017-06-23T10:19:52.340Z,27.2
2017-06-23T10:20:52.338Z,27.31
2017-06-23T10:21:52.343Z,27.23
2017-06-23T10:22:51.712Z,27.02
2017-06-23T10:23:51.706Z,26.8
2017-06-23T10:24:52.338Z,26.5
2017-06-23T10:25:52.353Z,26.39
2017-06-23T10:26:52.065Z,26.57
2017-06-23T10:27:52.330Z,27.04
2017-06-23T10:28:52.020Z,26.83
2017-06-23T10:29:52.016Z,27.13
2017-06-23T10:30:52.324Z,27.29
2017-06-23T10:31:52.006Z,27.39
2017-06-23T10:32:52.009Z,27.43
2017-06-23T10:33:51.693Z,27.2
2017-06-23T10:34:52.045Z,27.17
2017-06-23T10:35:52.003Z,26.95
2017-06-23T10:36:52.008Z,26.74
2017-06-23T10:37:52.315Z,26.43
2017-06-23T10:38:52.005Z,26.06
2017-06-23T10:39:52.049Z,25.91
2017-06-23T10:40:51.689Z,25.79
2017-06-23T10:41:51.996Z,25.71
2017-06-23T10:42:52.302Z,25.62
2017-06-23T10:43:51.987Z,25.56
2017-06-23T10:44:51.984Z,25.61
2017-06-23T10:45:51.984Z,25.69
2017-06-23T10:46:52.296Z,26.46
2017-06-23T10:47:52.287Z,26.81
2017-06-23T10:48:51.662Z,27.04
2017-06-23T10:49:52.281Z,27.47
2017-06-23T10:50:51.656Z,27.77
2017-06-23T10:51:52.281Z,27.89
2017-06-23T10:52:51.965Z,27.91
2017-06-23T10:53:52.280Z,27.77
2017-06-23T10:54:51.962Z,27.88
2017-06-23T10:55:51.646Z,28.11
2017-06-23T10:56:52.273Z,28.46
2017-06-23T10:57:51.956Z,28.1
2017-06-23T10:58:51.955Z,27.53
2017-06-23T10:59:51.959Z,27.06
2017-06-23T11:00:51.958Z,26.57
2017-06-23T11:01:52.267Z,26.36
2017-06-23T11:02:52.265Z,26.09
2017-06-23T11:03:51.954Z,25.89
2017-06-23T11:04:52.261Z,25.61
2017-06-23T11:05:51.948Z,25.47
2017-06-23T11:06:51.945Z,25.42
2017-06-23T11:07:51.949Z,25.56
2017-06-23T11:08:52.259Z,25.82
2017-06-23T11:09:52.263Z,25.79
2017-06-23T11:10:52.301Z,25.59
2017-06-23T11:11:51.944Z,26.09
2017-06-23T11:12:51.934Z,26.55
2017-06-23T11:13:52.240Z,26.87
2017-06-23T11:14:52.237Z,27.06
2017-06-23T11:15:51.632Z,27.33
2017-06-23T11:16:51.919Z,27.76
2017-06-23T11:17:51.919Z,27.59
2017-06-23T11:18:52.232Z,27.69
2017-06-23T11:19:51.938Z,27.99
2017-06-23T11:20:51.967Z,28.44
2017-06-23T11:21:52.228Z,28.56
2017-06-23T11:22:52.228Z,28.82
2017-06-23T11:23:51.921Z,28.54
2017-06-23T11:24:52.227Z,27.99
2017-06-23T11:25:51.914Z,27.8
2017-06-23T11:26:52.225Z,27.31
2017-06-23T11:27:51.913Z,26.98
2017-06-23T11:28:51.961Z,26.54
2017-06-23T11:29:51.602Z,26.35
2017-06-23T11:30:51.993Z,25.99
2017-06-23T11:31:51.649Z,25.62
2017-06-23T11:32:51.909Z,25.9
2017-06-23T11:33:52.234Z,26.36
2017-06-23T11:34:52.221Z,26.55
2017-06-23T11:35:52.430Z,26.95
2017-06-23T11:36:51.914Z,27.51
2017-06-23T11:37:51.900Z,28.01
2017-06-23T11:38:51.899Z,28.14
2017-06-23T11:39:51.900Z,28.01
2017-06-23T11:40:51.899Z,27.73
2017-06-23T11:41:51.899Z,27.53
2017-06-23T11:42:51.894Z,27.54
2017-06-23T11:43:52.207Z,27.5
2017-06-23T11:44:52.278Z,27.51
2017-06-23T11:45:52.215Z,27.61
2017-06-23T11:46:52.206Z,27.64
2017-06-23T11:47:52.201Z,27.76
2017-06-23T11:48:52.201Z,27.88
2017-06-23T11:49:51.888Z,28.01
2017-06-23T11:50:52.198Z,28.43
2017-06-23T11:51:51.573Z,28.78
2017-06-23T11:52:51.910Z,28.9
2017-06-23T11:53:52.200Z,29.29
2017-06-23T11:54:51.886Z,29.52
2017-06-23T11:55:52.205Z,29.59
2017-06-23T11:56:51.576Z,29.31
2017-06-23T11:57:51.887Z,29.18
2017-06-23T11:58:51.893Z,29.13
2017-06-23T11:59:51.889Z,29.18
2017-06-23T12:00:51.891Z,28.84
2017-06-23T12:01:51.892Z,28.58
2017-06-23T12:02:51.890Z,28.33
2017-06-23T12:03:51.893Z,28.33
2017-06-23T12:04:52.210Z,27.95
2017-06-23T12:05:52.211Z,27.76
2017-06-23T12:06:51.898Z,27.74
2017-06-23T12:07:52.209Z,27.84
2017-06-23T12:08:51.894Z,27.54
2017-06-23T12:09:52.211Z,27.61
2017-06-23T12:10:51.894Z,27.77
2017-06-23T12:11:52.208Z,27.62
2017-06-23T12:12:51.951Z,27.35
2017-06-23T12:13:52.211Z,27.36
2017-06-23T12:14:52.217Z,27.36
2017-06-23T12:15:52.209Z,27.5
2017-06-23T12:16:51.897Z,27.66
2017-06-23T12:17:51.893Z,27.42
2017-06-23T12:18:52.205Z,27.29
2017-06-23T12:19:51.896Z,27.14
2017-06-23T12:20:52.202Z,27.17
2017-06-23T12:21:52.206Z,27.24
2017-06-23T12:22:52.203Z,27.21
2017-06-23T12:23:51.892Z,27.38
2017-06-23T12:24:51.889Z,27.7
2017-06-23T12:25:51.889Z,27.85
2017-06-23T12:26:52.198Z,27.98
2017-06-23T12:27:52.195Z,27.89
2017-06-23T12:28:51.878Z,27.89
2017-06-23T12:29:52.189Z,27.71
2017-06-23T12:30:52.195Z,27.69
2017-06-23T12:31:51.568Z,27.82
2017-06-23T12:32:52.190Z,28.06
2017-06-23T12:33:51.563Z,28.36
2017-06-23T12:34:52.189Z,28.35
2017-06-23T12:35:52.189Z,28.47
2017-06-23T12:36:51.868Z,28.73
2017-06-23T12:37:51.556Z,29.07
2017-06-23T12:38:51.867Z,29.16
2017-06-23T12:39:52.179Z,28.97
2017-06-23T12:40:52.183Z,29.01
2017-06-23T12:41:52.201Z,29
2017-06-23T12:42:51.869Z,28.66
2017-06-23T12:43:51.871Z,28.56
2017-06-23T12:44:51.556Z,28.53
2017-06-23T12:45:51.936Z,28.5
2017-06-23T12:46:52.193Z,28.33
2017-06-23T12:47:52.181Z,28.31
2017-06-23T12:48:51.871Z,28.26
2017-06-23T12:49:51.870Z,28.31
2017-06-23T12:50:51.869Z,28.33
2017-06-23T12:51:51.865Z,27.94
2017-06-23T12:52:52.180Z,27.88
2017-06-23T12:53:51.867Z,27.58
2017-06-23T12:54:52.178Z,27.79
2017-06-23T12:55:52.183Z,27.73
2017-06-23T12:56:52.183Z,27.96